Flight Track Log - Related Links

Times and Time Zones

All times are in EST time to prevent confusion due to time zone crossing. See the N470BC flight status page for this flight to view local times or setup timezone preferences in your user account.

Time Position Orientation Groundspeed Altitude Reporting Facility
EST Latitude Longitude Course Direction KTS MPH feet Rate Location/Type
Thu 04:28:11 PM 46.7869 -92.0942 145° Southeast 122 140 5,000  Level Minneapolis Center
Thu 04:29:13 PM 46.7431 -92.0506 146° Southeast 143 165 5,000  Level Minneapolis Center
Thu 04:30:15 PM 46.7036 -92.0122 146° Southeast 160 184 5,000  Level Minneapolis Center
Thu 04:31:17 PM 46.6642 -91.9761 148° Southeast 166 191 5,000  Level Minneapolis Center
Thu 04:32:00 PM 46.6095 -91.9588 145° Southeast  Level FlightAware Approximate
Thu 04:32:19 PM 46.6258 -91.9381 146° Southeast 167 192 5,000  Level Minneapolis Center
Thu 04:33:00 PM 46.5708 -91.9196 145° Southeast  Level Estimated
Thu 04:33:21 PM 46.5886 -91.8978 143° Southeast 167 192 5,000  Level Minneapolis Center
Thu 04:34:24 PM 46.5494 -91.8567 144° Southeast 170 196 5,000  Level Minneapolis Center
Thu 04:35:26 PM 46.5028 -91.8114 146° Southeast 170 196 5,000  Level Minneapolis Center
Thu 04:36:28 PM 46.4636 -91.7714 145° Southeast 171 197 5,000  Level Minneapolis Center
Thu 04:37:30 PM 46.4239 -91.7306 145° Southeast 172 198 5,000  Level Minneapolis Center
Thu 04:38:32 PM 46.3847 -91.6922 146° Southeast 173 199 5,000  Level Minneapolis Center
Thu 04:39:34 PM 46.3453 -91.6517 145° Southeast 173 199 5,000  Level Minneapolis Center
Thu 04:40:36 PM 46.3056 -91.6125 146° Southeast 173 199 5,000  Level Minneapolis Center
Thu 04:41:38 PM 46.2581 -91.5656 146° Southeast 173 199 5,000 -8 Level Minneapolis Center
Thu 04:52:24 PM 45.8319 -91.1514 147° Southeast 177 204 4,900 -8 Descending Minneapolis Center
Thu 04:53:00 PM 45.8109 -91.1399 147° Southeast  Level FlightAware Approximate
Thu 04:53:26 PM 45.7936 -91.1150 146° Southeast 168 193 4,900  Level Minneapolis Center
Thu 04:54:00 PM 45.7715 -91.1028 147° Southeast  Level FlightAware Approximate
Thu 04:54:28 PM 45.7536 -91.0769 146° Southeast 170 196 5,000  Level Minneapolis Center
Thu 04:55:00 PM 45.7321 -91.0657 147° Southeast  Level FlightAware Approximate
Thu 04:55:30 PM 45.7147 -91.0381 145° Southeast 171 197 5,000  Level Minneapolis Center
Thu 04:56:00 PM 45.6926 -91.0287 147° Southeast  Level FlightAware Approximate
Thu 04:56:32 PM 45.6747 -91.0000 146° Southeast 171 197 5,000  Level Minneapolis Center
Thu 04:57:00 PM 45.6532 -90.9918 147° Southeast  Level FlightAware Approximate
Thu 04:57:34 PM 45.6347 -90.9622 147° Southeast 172 198 5,000  Level Minneapolis Center
Thu 04:58:36 PM 45.5872 -90.9169 146° Southeast 171 197 5,000  Level Minneapolis Center
Thu 04:59:38 PM 45.5483 -90.8786 145° Southeast 171 197 5,000  Level Minneapolis Center
Thu 05:00:41 PM 45.5089 -90.8422 147° Southeast 171 197 5,000  Level Minneapolis Center
Thu 05:01:43 PM 45.4694 -90.8039 146° Southeast 171 197 5,000  Level Minneapolis Center
Thu 05:02:45 PM 45.4297 -90.7661 146° Southeast 171 197 5,000  Level Minneapolis Center
Thu 05:03:47 PM 45.3894 -90.7286 147° Southeast 172 198 5,000  Level Minneapolis Center
Thu 05:04:49 PM 45.3419 -90.6831 146° Southeast 172 198 5,000  Level Minneapolis Center
Thu 05:05:51 PM 45.3019 -90.6450 146° Southeast 172 198 5,000  Level Minneapolis Center
Thu 05:06:53 PM 45.2622 -90.6081 147° Southeast 172 198 5,000  Level Minneapolis Center
Thu 05:07:55 PM 45.2228 -90.5703 146° Southeast 172 198 5,000  Level Minneapolis Center
Thu 05:08:57 PM 45.1828 -90.5339 147° Southeast 171 197 5,000  Level Minneapolis Center
Thu 05:09:59 PM 45.1442 -90.4967 146° Southeast 170 196 5,000  Level Minneapolis Center
Thu 05:11:01 PM 45.0964 -90.4522 147° Southeast 170 196 5,000  Level Minneapolis Center
Thu 05:12:03 PM 45.0589 -90.4181 147° Southeast 167 192 5,000  Level Minneapolis Center
Thu 05:13:05 PM 45.0192 -90.3800 146° Southeast 168 193 5,000  Level Minneapolis Center
Thu 05:14:07 PM 44.9786 -90.3417 146° Southeast 166 191 5,000  Level Minneapolis Center
Thu 05:15:09 PM 44.9383 -90.3042 147° Southeast 168 193 5,000  Level Minneapolis Center
Thu 05:16:11 PM 44.8983 -90.2672 147° Southeast 165 190 5,000  Level Minneapolis Center
Thu 05:17:13 PM 44.8572 -90.2297 147° Southeast 166 191 5,000  Level Minneapolis Center
Thu 05:18:15 PM 44.8203 -90.1950 146° Southeast 167 192 5,000  Level Minneapolis Center
Thu 05:19:17 PM 44.7811 -90.1583 146° Southeast 164 189 5,000  Level Minneapolis Center
Thu 05:20:19 PM 44.7389 -90.1206 148° Southeast 167 192 5,000  Level Minneapolis Center
Thu 05:21:21 PM 44.6981 -90.0831 147° Southeast 169 194 5,000  Level Minneapolis Center
Thu 05:22:23 PM 44.6583 -90.0453 146° Southeast 166 191 5,000  Level Minneapolis Center
Thu 05:23:25 PM 44.6169 -90.0081 147° Southeast 167 192 5,000  Level Minneapolis Center
Thu 05:24:27 PM 44.5792 -89.9736 147° Southeast 169 194 5,000  Level Minneapolis Center
Thu 05:25:29 PM 44.5383 -89.9356 146° Southeast 169 194 5,000  Level Minneapolis Center
Thu 05:26:31 PM 44.4986 -89.8975 146° Southeast 166 191 5,000  Level Minneapolis Center
Thu 05:27:33 PM 44.4575 -89.8617 148° Southeast 168 193 5,000  Level Minneapolis Center
Thu 05:28:35 PM 44.4125 -89.8378 159° South 174 200 5,000  Level Minneapolis Center
Thu 05:29:36 PM 44.3622 -89.8400 182° South 175 201 5,000  Level Minneapolis Center
Thu 05:30:38 PM 44.3211 -89.8228 163° South 170 196 5,000  Level Minneapolis Center
Thu 05:31:40 PM 44.2833 -89.7883 147° Southeast 171 197 5,000  Level Minneapolis Center
Thu 05:32:42 PM 44.2408 -89.7478 146° Southeast 164 189 5,000  Level Minneapolis Center
Thu 05:33:44 PM 44.2014 -89.7103 146° Southeast 165 190 5,000  Level Minneapolis Center
Thu 05:34:46 PM 44.1619 -89.6719 145° Southeast 164 189 5,000  Level Minneapolis Center
Thu 05:35:48 PM 44.1278 -89.6383 145° Southeast 165 190 5,000  Level Minneapolis Center
Thu 05:36:49 PM 44.0867 -89.5992 146° Southeast 164 189 5,000  Level Minneapolis Center
Thu 05:37:51 PM 44.0514 -89.5658 146° Southeast 161 185 5,000  Level Minneapolis Center
Thu 05:38:53 PM 44.0094 -89.5256 145° Southeast 162 186 5,000  Level Minneapolis Center
Thu 05:39:56 PM 43.9739 -89.4900 144° Southeast 161 185 5,000  Level Chicago Center
Thu 05:40:58 PM 43.9375 -89.4567 147° Southeast 159 183 5,000  Level Chicago Center
Thu 05:42:00 PM 43.9019 -89.4231 146° Southeast 156 180 5,000  Level Chicago Center
Thu 05:43:02 PM 43.8650 -89.3872 145° Southeast 159 183 5,000  Level Chicago Center
Thu 05:44:04 PM 43.8289 -89.3542 147° Southeast 158 182 5,000  Level Chicago Center
Thu 05:45:06 PM 43.7856 -89.3125 145° Southeast 158 182 5,000  Level Chicago Center
Thu 05:46:08 PM 43.7497 -89.2789 146° Southeast 158 182 5,000  Level Chicago Center
Thu 05:47:10 PM 43.7131 -89.2447 146° Southeast 158 182 5,000  Level Chicago Center
Thu 05:48:12 PM 43.6769 -89.2111 146° Southeast 157 181 5,000  Level Chicago Center
Thu 05:49:15 PM 43.6411 -89.1772 146° Southeast 158 182 5,000 48 Level Chicago Center
Thu 05:50:17 PM 43.5981 -89.1372 146° Southeast 157 181 5,100 48 Climbing Chicago Center
Thu 05:51:19 PM 43.5619 -89.1039 146° Southeast 157 181 5,100  Level Chicago Center
Thu 05:52:21 PM 43.5247 -89.0686 145° Southeast 159 183 5,100  Level Chicago Center
Thu 05:53:23 PM 43.4883 -89.0358 147° Southeast 159 183 5,100  Level Chicago Center
Thu 05:54:25 PM 43.4514 -89.0017 146° Southeast 159 183 5,100  Level Chicago Center
Thu 05:55:27 PM 43.4153 -88.9672 145° Southeast 159 183 5,100 -48 Level Chicago Center
Thu 05:56:29 PM 43.3714 -88.9264 146° Southeast 160 184 5,000 -48 Descending Chicago Center
Thu 05:57:31 PM 43.3350 -88.8928 146° Southeast 159 183 5,000  Level Chicago Center
Thu 05:58:33 PM 43.2989 -88.8589 146° Southeast 158 182 5,000  Level Chicago Center
Thu 05:59:36 PM 43.2683 -88.8164 135° Southeast 158 182 5,000  Level Chicago Center
Thu 06:00:38 PM 43.2381 -88.7731 134° Southeast 158 182 5,000  Level Chicago Center
Thu 06:01:40 PM 43.2003 -88.7228 136° Southeast 159 183 5,000  Level Chicago Center
Thu 06:02:42 PM 43.1683 -88.6803 136° Southeast 159 183 5,000  Level Chicago Center
Thu 06:03:44 PM 43.1369 -88.6375 135° Southeast 160 184 5,000  Level Chicago Center
Thu 06:04:46 PM 43.1056 -88.5942 135° Southeast 160 184 5,000  Level Chicago Center
Thu 06:05:48 PM 43.0739 -88.5519 136° Southeast 160 184 5,000 -194 Level Chicago Center
Thu 06:06:50 PM 43.0358 -88.4997 135° Southeast 161 185 4,600 -387 Descending Chicago Center
Thu 06:07:52 PM 43.0017 -88.4536 135° Southeast 166 191 4,200 -387 Descending Chicago Center
Thu 06:08:54 PM 42.9681 -88.4089 136° Southeast 169 194 3,800 -384 Descending Chicago Center
Thu 06:09:57 PM 42.9367 -88.3653 135° Southeast 167 192 3,400 -384 Descending Chicago Center
Thu 06:10:59 PM 42.9075 -88.3272 136° Southeast 157 181 3,000 -194 Descending Chicago Center
Thu 06:12:01 PM 42.8722 -88.2944 146° Southeast 154 177 3,000 -194 Level Chicago Center
Thu 06:13:03 PM 42.8308 -88.2983 184° South 153 176 2,600 -194 Descending Chicago Center
Thu 06:14:05 PM 42.7908 -88.2994 181° South 148 170 2,600 -242 Level Chicago Center
Thu 06:15:07 PM 42.7583 -88.3025 184° South 132 152 2,100 -290 Descending Chicago Center
Thu 06:16:09 PM 42.7247 -88.3061 185° South 130 150 2,000 -97 Descending Chicago Center

Login

Don't have an account? Register now (free) for customized features, flight alerts, and more!